Portada
METAR-TAF:

METAR-TAF

Aeroports :

Christchurch, Nova Zelanda

latitud: 43-29S, longitud: 172-33E, altitud: 38 m

Observació

L'informe es va fer fa 37 minuts, a les 11:00 UTC
Vent 3 kt del Sud/Sud-Oest
Temperatura 8°C
Humitat 87%
Pressió 1014 hPa
Visibilitat 10 km o més

METAR: NZCH 091100Z AUTO 21003KT 9999 NCD 08/06 Q1014 NOSIG

Hora: 23:37 (11:37 UTC)

Pronòstic

L'informe es va fer fa 34 minuts, a les 11:03 UTC
Pronòstic vàlid del 09 a les 12 UTC al 10 a les 12 UTC
Vent 3 kt amb direcció variable
Visibilitat 10 km o més
Escasses núvols a una alçada de 2000 ft
Evolucionant progressivament
l' 09 a les 22 UTC al 10 a les 00 UTC
Vent 10 kt del Nord-Est
Evolucionant progressivament
l' 10 a les 10 UTC al 10 a les 12 UTC
Visibilitat: 0500 m
Cel ennuvolat a una alçada menor de 100 ft
boira

TAF: NZCH 091103Z 0912/1012 VRB03KT 9999 FEW020 BECMG 0922/1000 05010KT BECMG 1010/1012 0500 FG BKN000

Observacions i pronòstics meteorològics de més de 4000 aeroports (METAR i TAF).

Les estacions disponibles són els punts grocs i vermells al mapa.

Posi el ratolí al punt desitjat per veure el nom de l'estació.

Feu clic per veure les observacions i els pronòstics meteorològics.

Per canviar el mapa: feu clic els botons verds amb una creu de color negre per apropar; al botó verd amb un guió per allunyar la imatge; o en les fletxes verdes per a mapes adjacents.


METAR-TAF: